Terminal Aerodrome Forecast
Issued by NWS

Home | Current Version | Previous Version | Text Only | Print | Product List | Glossary On
Versions: 1 2 3 4 5 6 7 8 9 10 11 12 13 14 15
321
FTUS41 KPBZ 242320
TAFDUJ
TAF
KDUJ 242320Z 2500/2524 13010G18KT P6SM VCSH OVC050
      TEMPO 2500/2502 3SM -RA BKN025
     FM250200 12011G19KT P6SM -SHRA OVC025
     FM250400 12012G20KT P6SM -SHRA OVC015
     FM251300 12008KT 5SM -SHRA OVC015
     FM251800 14005KT P6SM -SHRA VCTS OVC025CB=

USA.gov is the U.S. government's official web portal to all federal, state and local government web resources and services.